sensor_id;sensor_type;location;lat;lon;timestamp;P1;P2;P0
36513;PMS5003;66331;46.796;9.824;2023-01-26T00:00:19;4;4;
36513;PMS5003;66331;46.796;9.824;2023-01-26T00:02:46;4;2;
36513;PMS5003;66331;46.796;9.824;2023-01-26T00:05:13;5;5;
36513;PMS5003;66331;46.796;9.824;2023-01-26T00:07:41;5;4;
36513;PMS5003;66331;46.796;9.824;2023-01-26T00:10:08;7;7;
36513;PMS5003;66331;46.796;9.824;2023-01-26T00:12:36;5;2;
36513;PMS5003;66331;46.796;9.824;2023-01-26T00:15:04;4;2;
36513;PMS5003;66331;46.796;9.824;2023-01-26T00:17:32;4;4;
36513;PMS5003;66331;46.796;9.824;2023-01-26T00:19:59;5;4;
36513;PMS5003;66331;46.796;9.824;2023-01-26T00:22:26;2;2;
36513;PMS5003;66331;46.796;9.824;2023-01-26T00:24:54;2;1;
36513;PMS5003;66331;46.796;9.824;2023-01-26T00:27:21;5;4;
36513;PMS5003;66331;46.796;9.824;2023-01-26T00:29:48;4;2;
36513;PMS5003;66331;46.796;9.824;2023-01-26T00:32:16;2;2;
36513;PMS5003;66331;46.796;9.824;2023-01-26T00:34:43;1;1;
36513;PMS5003;66331;46.796;9.824;2023-01-26T00:37:10;1;1;
36513;PMS5003;66331;46.796;9.824;2023-01-26T00:39:38;5;4;
36513;PMS5003;66331;46.796;9.824;2023-01-26T00:42:05;1;1;
36513;PMS5003;66331;46.796;9.824;2023-01-26T00:44:32;1;1;
36513;PMS5003;66331;46.796;9.824;2023-01-26T00:47:00;1;1;
36513;PMS5003;66331;46.796;9.824;2023-01-26T00:49:27;2;2;
36513;PMS5003;66331;46.796;9.824;2023-01-26T00:51:54;5;4;
36513;PMS5003;66331;46.796;9.824;2023-01-26T00:54:22;5;4;
36513;PMS5003;66331;46.796;9.824;2023-01-26T00:56:49;1;1;
36513;PMS5003;66331;46.796;9.824;2023-01-26T00:59:16;1;1;
36513;PMS5003;66331;46.796;9.824;2023-01-26T01:01:44;1;1;
36513;PMS5003;66331;46.796;9.824;2023-01-26T01:04:11;4;2;
36513;PMS5003;66331;46.796;9.824;2023-01-26T01:06:39;2;1;
36513;PMS5003;66331;46.796;9.824;2023-01-26T01:09:06;2;2;
36513;PMS5003;66331;46.796;9.824;2023-01-26T01:11:34;2;2;
36513;PMS5003;66331;46.796;9.824;2023-01-26T01:14:02;1;1;
36513;PMS5003;66331;46.796;9.824;2023-01-26T01:16:30;2;1;
36513;PMS5003;66331;46.796;9.824;2023-01-26T01:18:59;2;1;
36513;PMS5003;66331;46.796;9.824;2023-01-26T01:21:27;2;1;
36513;PMS5003;66331;46.796;9.824;2023-01-26T01:23:55;2;2;
36513;PMS5003;66331;46.796;9.824;2023-01-26T01:26:23;1;1;
36513;PMS5003;66331;46.796;9.824;2023-01-26T01:28:56;1;1;
36513;PMS5003;66331;46.796;9.824;2023-01-26T01:31:24;1;1;
36513;PMS5003;66331;46.796;9.824;2023-01-26T01:33:52;1;1;
36513;PMS5003;66331;46.796;9.824;2023-01-26T01:36:21;1;1;
36513;PMS5003;66331;46.796;9.824;2023-01-26T01:38:50;2;2;
36513;PMS5003;66331;46.796;9.824;2023-01-26T01:41:19;1;1;
36513;PMS5003;66331;46.796;9.824;2023-01-26T01:43:47;1;1;
36513;PMS5003;66331;46.796;9.824;2023-01-26T01:46:20;1;1;
36513;PMS5003;66331;46.796;9.824;2023-01-26T01:48:56;1;1;
36513;PMS5003;66331;46.796;9.824;2023-01-26T01:51:29;1;1;
36513;PMS5003;66331;46.796;9.824;2023-01-26T01:54:00;0;0;
36513;PMS5003;66331;46.796;9.824;2023-01-26T01:56:31;1;0;
36513;PMS5003;66331;46.796;9.824;2023-01-26T01:59:01;1;1;
36513;PMS5003;66331;46.796;9.824;2023-01-26T02:01:31;2;2;
36513;PMS5003;66331;46.796;9.824;2023-01-26T02:03:59;4;2;
36513;PMS5003;66331;46.796;9.824;2023-01-26T02:06:32;4;2;
36513;PMS5003;66331;46.796;9.824;2023-01-26T02:09:05;1;1;
36513;PMS5003;66331;46.796;9.824;2023-01-26T02:11:36;1;1;
36513;PMS5003;66331;46.796;9.824;2023-01-26T02:14:07;1;1;
36513;PMS5003;66331;46.796;9.824;2023-01-26T02:16:40;1;1;
36513;PMS5003;66331;46.796;9.824;2023-01-26T02:19:11;1;1;
36513;PMS5003;66331;46.796;9.824;2023-01-26T02:21:48;1;1;
36513;PMS5003;66331;46.796;9.824;2023-01-26T02:24:19;4;2;
36513;PMS5003;66331;46.796;9.824;2023-01-26T02:26:52;2;1;
36513;PMS5003;66331;46.796;9.824;2023-01-26T02:29:21;1;1;
36513;PMS5003;66331;46.796;9.824;2023-01-26T02:31:50;1;1;
36513;PMS5003;66331;46.796;9.824;2023-01-26T02:34:18;1;1;
36513;PMS5003;66331;46.796;9.824;2023-01-26T02:36:55;1;0;
36513;PMS5003;66331;46.796;9.824;2023-01-26T02:39:25;1;1;
36513;PMS5003;66331;46.796;9.824;2023-01-26T02:42:07;2;1;
36513;PMS5003;66331;46.796;9.824;2023-01-26T02:44:35;1;1;
36513;PMS5003;66331;46.796;9.824;2023-01-26T02:47:10;4;2;
36513;PMS5003;66331;46.796;9.824;2023-01-26T02:49:39;2;2;
36513;PMS5003;66331;46.796;9.824;2023-01-26T02:52:08;1;1;
36513;PMS5003;66331;46.796;9.824;2023-01-26T02:54:36;2;2;
36513;PMS5003;66331;46.796;9.824;2023-01-26T02:57:04;1;1;
36513;PMS5003;66331;46.796;9.824;2023-01-26T02:59:32;2;2;
36513;PMS5003;66331;46.796;9.824;2023-01-26T03:02:01;2;2;
36513;PMS5003;66331;46.796;9.824;2023-01-26T03:04:29;4;2;
36513;PMS5003;66331;46.796;9.824;2023-01-26T03:06:57;2;2;
36513;PMS5003;66331;46.796;9.824;2023-01-26T03:09:26;2;2;
36513;PMS5003;66331;46.796;9.824;2023-01-26T03:11:54;4;2;
36513;PMS5003;66331;46.796;9.824;2023-01-26T03:14:22;1;1;
36513;PMS5003;66331;46.796;9.824;2023-01-26T03:16:50;0;0;
36513;PMS5003;66331;46.796;9.824;2023-01-26T03:19:18;0;0;
36513;PMS5003;66331;46.796;9.824;2023-01-26T03:21:47;0;0;
36513;PMS5003;66331;46.796;9.824;2023-01-26T03:24:15;1;1;
36513;PMS5003;66331;46.796;9.824;2023-01-26T03:26:43;0;0;
36513;PMS5003;66331;46.796;9.824;2023-01-26T03:29:11;0;0;
36513;PMS5003;66331;46.796;9.824;2023-01-26T03:31:39;0;0;
36513;PMS5003;66331;46.796;9.824;2023-01-26T03:34:07;2;1;
36513;PMS5003;66331;46.796;9.824;2023-01-26T03:36:34;0;0;
36513;PMS5003;66331;46.796;9.824;2023-01-26T03:39:01;1;1;
36513;PMS5003;66331;46.796;9.824;2023-01-26T03:41:29;2;2;
36513;PMS5003;66331;46.796;9.824;2023-01-26T03:43:56;1;1;
36513;PMS5003;66331;46.796;9.824;2023-01-26T03:46:23;2;2;
36513;PMS5003;66331;46.796;9.824;2023-01-26T03:48:51;2;1;
36513;PMS5003;66331;46.796;9.824;2023-01-26T03:51:18;1;1;
36513;PMS5003;66331;46.796;9.824;2023-01-26T03:53:46;0;0;
36513;PMS5003;66331;46.796;9.824;2023-01-26T03:56:13;1;1;
36513;PMS5003;66331;46.796;9.824;2023-01-26T03:58:41;0;0;
36513;PMS5003;66331;46.796;9.824;2023-01-26T04:01:10;2;2;
36513;PMS5003;66331;46.796;9.824;2023-01-26T04:03:37;0;0;
36513;PMS5003;66331;46.796;9.824;2023-01-26T04:06:04;1;1;
36513;PMS5003;66331;46.796;9.824;2023-01-26T04:08:32;2;1;
36513;PMS5003;66331;46.796;9.824;2023-01-26T04:10:59;0;0;
36513;PMS5003;66331;46.796;9.824;2023-01-26T04:13:26;2;1;
36513;PMS5003;66331;46.796;9.824;2023-01-26T04:15:54;1;1;
36513;PMS5003;66331;46.796;9.824;2023-01-26T04:18:22;2;2;
36513;PMS5003;66331;46.796;9.824;2023-01-26T04:20:50;1;0;
36513;PMS5003;66331;46.796;9.824;2023-01-26T04:23:17;2;2;
36513;PMS5003;66331;46.796;9.824;2023-01-26T04:25:46;1;1;
36513;PMS5003;66331;46.796;9.824;2023-01-26T04:28:14;0;0;
36513;PMS5003;66331;46.796;9.824;2023-01-26T04:30:42;0;0;
36513;PMS5003;66331;46.796;9.824;2023-01-26T04:33:09;0;0;
36513;PMS5003;66331;46.796;9.824;2023-01-26T04:35:36;0;0;
36513;PMS5003;66331;46.796;9.824;2023-01-26T04:38:04;1;1;
36513;PMS5003;66331;46.796;9.824;2023-01-26T04:40:31;0;0;
36513;PMS5003;66331;46.796;9.824;2023-01-26T04:42:59;1;1;
36513;PMS5003;66331;46.796;9.824;2023-01-26T04:45:26;1;1;
36513;PMS5003;66331;46.796;9.824;2023-01-26T04:47:53;1;1;
36513;PMS5003;66331;46.796;9.824;2023-01-26T04:50:21;1;1;
36513;PMS5003;66331;46.796;9.824;2023-01-26T04:52:48;0;0;
36513;PMS5003;66331;46.796;9.824;2023-01-26T04:55:16;0;0;
36513;PMS5003;66331;46.796;9.824;2023-01-26T04:57:43;0;0;
36513;PMS5003;66331;46.796;9.824;2023-01-26T05:00:11;1;1;
36513;PMS5003;66331;46.796;9.824;2023-01-26T05:02:39;1;0;
36513;PMS5003;66331;46.796;9.824;2023-01-26T05:05:06;2;1;
36513;PMS5003;66331;46.796;9.824;2023-01-26T05:07:34;3;3;
36513;PMS5003;66331;46.796;9.824;2023-01-26T05:10:02;0;0;
36513;PMS5003;66331;46.796;9.824;2023-01-26T05:12:29;0;0;
36513;PMS5003;66331;46.796;9.824;2023-01-26T05:14:57;0;0;
36513;PMS5003;66331;46.796;9.824;2023-01-26T05:17:24;1;1;
36513;PMS5003;66331;46.796;9.824;2023-01-26T05:19:51;1;1;
36513;PMS5003;66331;46.796;9.824;2023-01-26T05:22:19;1;1;
36513;PMS5003;66331;46.796;9.824;2023-01-26T05:24:46;1;1;
36513;PMS5003;66331;46.796;9.824;2023-01-26T05:27:14;1;1;
36513;PMS5003;66331;46.796;9.824;2023-01-26T05:29:41;2;1;
36513;PMS5003;66331;46.796;9.824;2023-01-26T05:32:08;1;1;
36513;PMS5003;66331;46.796;9.824;2023-01-26T05:34:36;2;1;
36513;PMS5003;66331;46.796;9.824;2023-01-26T05:37:03;2;1;
36513;PMS5003;66331;46.796;9.824;2023-01-26T05:39:31;1;1;
36513;PMS5003;66331;46.796;9.824;2023-01-26T05:41:58;1;1;
36513;PMS5003;66331;46.796;9.824;2023-01-26T05:44:25;2;2;
36513;PMS5003;66331;46.796;9.824;2023-01-26T05:46:53;2;2;
36513;PMS5003;66331;46.796;9.824;2023-01-26T05:49:20;2;2;
36513;PMS5003;66331;46.796;9.824;2023-01-26T05:51:48;2;2;
36513;PMS5003;66331;46.796;9.824;2023-01-26T05:54:15;3;3;
36513;PMS5003;66331;46.796;9.824;2023-01-26T05:56:43;2;2;
36513;PMS5003;66331;46.796;9.824;2023-01-26T05:59:10;4;4;
36513;PMS5003;66331;46.796;9.824;2023-01-26T06:01:37;4;4;
36513;PMS5003;66331;46.796;9.824;2023-01-26T06:04:04;5;4;
36513;PMS5003;66331;46.796;9.824;2023-01-26T06:06:32;2;2;
36513;PMS5003;66331;46.796;9.824;2023-01-26T06:08:59;4;4;
36513;PMS5003;66331;46.796;9.824;2023-01-26T06:11:27;4;4;
36513;PMS5003;66331;46.796;9.824;2023-01-26T06:13:56;4;2;
36513;PMS5003;66331;46.796;9.824;2023-01-26T06:16:23;4;2;
36513;PMS5003;66331;46.796;9.824;2023-01-26T06:18:50;7;2;
36513;PMS5003;66331;46.796;9.824;2023-01-26T06:21:17;4;4;
36513;PMS5003;66331;46.796;9.824;2023-01-26T06:23:45;4;4;
36513;PMS5003;66331;46.796;9.824;2023-01-26T06:26:12;5;5;
36513;PMS5003;66331;46.796;9.824;2023-01-26T06:28:40;5;5;
36513;PMS5003;66331;46.796;9.824;2023-01-26T06:31:07;10;8;
36513;PMS5003;66331;46.796;9.824;2023-01-26T06:33:36;7;7;
36513;PMS5003;66331;46.796;9.824;2023-01-26T06:36:04;11;10;
36513;PMS5003;66331;46.796;9.824;2023-01-26T06:38:34;7;7;
36513;PMS5003;66331;46.796;9.824;2023-01-26T06:41:03;10;8;
36513;PMS5003;66331;46.796;9.824;2023-01-26T06:43:32;10;10;
36513;PMS5003;66331;46.796;9.824;2023-01-26T06:46:00;10;8;
36513;PMS5003;66331;46.796;9.824;2023-01-26T06:48:28;16;14;
36513;PMS5003;66331;46.796;9.824;2023-01-26T06:51:02;14;14;
36513;PMS5003;66331;46.796;9.824;2023-01-26T06:53:57;14;13;
36513;PMS5003;66331;46.796;9.824;2023-01-26T06:56:25;24;18;
36513;PMS5003;66331;46.796;9.824;2023-01-26T06:58:52;17;17;
36513;PMS5003;66331;46.796;9.824;2023-01-26T07:01:21;17;16;
36513;PMS5003;66331;46.796;9.824;2023-01-26T07:03:52;17;14;
36513;PMS5003;66331;46.796;9.824;2023-01-26T07:06:20;16;13;
36513;PMS5003;66331;46.796;9.824;2023-01-26T07:08:48;13;13;
36513;PMS5003;66331;46.796;9.824;2023-01-26T07:11:15;13;13;
36513;PMS5003;66331;46.796;9.824;2023-01-26T07:13:43;14;14;
36513;PMS5003;66331;46.796;9.824;2023-01-26T07:16:11;19;16;
36513;PMS5003;66331;46.796;9.824;2023-01-26T07:18:40;14;13;
36513;PMS5003;66331;46.796;9.824;2023-01-26T07:21:12;14;13;
36513;PMS5003;66331;46.796;9.824;2023-01-26T07:23:40;13;13;
36513;PMS5003;66331;46.796;9.824;2023-01-26T07:26:08;16;14;
36513;PMS5003;66331;46.796;9.824;2023-01-26T07:28:35;11;11;
36513;PMS5003;66331;46.796;9.824;2023-01-26T07:31:03;10;10;
36513;PMS5003;66331;46.796;9.824;2023-01-26T07:33:32;13;13;
36513;PMS5003;66331;46.796;9.824;2023-01-26T07:36:00;16;14;
36513;PMS5003;66331;46.796;9.824;2023-01-26T07:38:28;16;14;
36513;PMS5003;66331;46.796;9.824;2023-01-26T07:40:56;22;17;
36513;PMS5003;66331;46.796;9.824;2023-01-26T07:43:24;14;13;
36513;PMS5003;66331;46.796;9.824;2023-01-26T07:45:53;17;16;
36513;PMS5003;66331;46.796;9.824;2023-01-26T07:48:21;20;14;
36513;PMS5003;66331;46.796;9.824;2023-01-26T07:50:49;13;13;
36513;PMS5003;66331;46.796;9.824;2023-01-26T07:53:27;11;11;
36513;PMS5003;66331;46.796;9.824;2023-01-26T07:56:03;13;11;
36513;PMS5003;66331;46.796;9.824;2023-01-26T07:58:33;14;13;
36513;PMS5003;66331;46.796;9.824;2023-01-26T08:01:10;14;13;
36513;PMS5003;66331;46.796;9.824;2023-01-26T08:03:38;13;10;
36513;PMS5003;66331;46.796;9.824;2023-01-26T08:06:07;14;11;
36513;PMS5003;66331;46.796;9.824;2023-01-26T08:08:35;13;11;
36513;PMS5003;66331;46.796;9.824;2023-01-26T08:11:02;14;13;
36513;PMS5003;66331;46.796;9.824;2023-01-26T08:13:30;10;10;
36513;PMS5003;66331;46.796;9.824;2023-01-26T08:16:01;13;13;
36513;PMS5003;66331;46.796;9.824;2023-01-26T08:18:28;13;13;
36513;PMS5003;66331;46.796;9.824;2023-01-26T08:20:55;11;11;
36513;PMS5003;66331;46.796;9.824;2023-01-26T08:23:23;10;8;
36513;PMS5003;66331;46.796;9.824;2023-01-26T08:25:50;11;11;
36513;PMS5003;66331;46.796;9.824;2023-01-26T08:28:18;11;10;
36513;PMS5003;66331;46.796;9.824;2023-01-26T08:30:45;10;8;
36513;PMS5003;66331;46.796;9.824;2023-01-26T08:33:12;5;5;
36513;PMS5003;66331;46.796;9.824;2023-01-26T08:35:39;10;8;
36513;PMS5003;66331;46.796;9.824;2023-01-26T08:38:07;10;10;
36513;PMS5003;66331;46.796;9.824;2023-01-26T08:40:34;8;8;
36513;PMS5003;66331;46.796;9.824;2023-01-26T08:43:02;10;10;
36513;PMS5003;66331;46.796;9.824;2023-01-26T08:45:29;13;8;
36513;PMS5003;66331;46.796;9.824;2023-01-26T08:47:58;8;8;
36513;PMS5003;66331;46.796;9.824;2023-01-26T08:50:25;11;8;
36513;PMS5003;66331;46.796;9.824;2023-01-26T08:52:54;8;7;
36513;PMS5003;66331;46.796;9.824;2023-01-26T08:55:22;8;7;
36513;PMS5003;66331;46.796;9.824;2023-01-26T08:57:51;8;8;
36513;PMS5003;66331;46.796;9.824;2023-01-26T09:00:19;11;7;
36513;PMS5003;66331;46.796;9.824;2023-01-26T09:02:47;7;5;
36513;PMS5003;66331;46.796;9.824;2023-01-26T09:05:14;8;8;
36513;PMS5003;66331;46.796;9.824;2023-01-26T09:07:41;5;4;
36513;PMS5003;66331;46.796;9.824;2023-01-26T09:10:09;4;4;
36513;PMS5003;66331;46.796;9.824;2023-01-26T09:12:36;4;2;
36513;PMS5003;66331;46.796;9.824;2023-01-26T09:15:04;2;2;
36513;PMS5003;66331;46.796;9.824;2023-01-26T09:17:33;4;2;
36513;PMS5003;66331;46.796;9.824;2023-01-26T09:20:00;4;2;
36513;PMS5003;66331;46.796;9.824;2023-01-26T09:22:28;7;5;
36513;PMS5003;66331;46.796;9.824;2023-01-26T09:24:56;5;5;
36513;PMS5003;66331;46.796;9.824;2023-01-26T09:27:23;11;9;
36513;PMS5003;66331;46.796;9.824;2023-01-26T09:29:50;8;8;
36513;PMS5003;66331;46.796;9.824;2023-01-26T09:32:18;8;7;
36513;PMS5003;66331;46.796;9.824;2023-01-26T09:34:45;14;11;
36513;PMS5003;66331;46.796;9.824;2023-01-26T09:37:12;15;15;
36513;PMS5003;66331;46.796;9.824;2023-01-26T09:39:39;11;9;
36513;PMS5003;66331;46.796;9.824;2023-01-26T09:42:16;8;8;
36513;PMS5003;66331;46.796;9.824;2023-01-26T09:44:54;8;5;
36513;PMS5003;66331;46.796;9.824;2023-01-26T09:47:34;9;6;
36513;PMS5003;66331;46.796;9.824;2023-01-26T09:50:09;6;6;
36513;PMS5003;66331;46.796;9.824;2023-01-26T09:52:42;5;5;
36513;PMS5003;66331;46.796;9.824;2023-01-26T09:55:18;2;2;
36513;PMS5003;66331;46.796;9.824;2023-01-26T09:57:48;5;5;
36513;PMS5003;66331;46.796;9.824;2023-01-26T10:00:19;11;9;
36513;PMS5003;66331;46.796;9.824;2023-01-26T10:02:53;15;15;
36513;PMS5003;66331;46.796;9.824;2023-01-26T10:05:31;12;10;
36513;PMS5003;66331;46.796;9.824;2023-01-26T10:08:07;14;13;
36513;PMS5003;66331;46.796;9.824;2023-01-26T10:10:38;17;14;
36513;PMS5003;66331;46.796;9.824;2023-01-26T10:13:11;10;10;
36513;PMS5003;66331;46.796;9.824;2023-01-26T10:15:41;13;10;
36513;PMS5003;66331;46.796;9.824;2023-01-26T10:18:16;9;9;
36513;PMS5003;66331;46.796;9.824;2023-01-26T10:20:46;12;8;
36513;PMS5003;66331;46.796;9.824;2023-01-26T10:23:17;8;6;
36513;PMS5003;66331;46.796;9.824;2023-01-26T10:25:48;8;6;
36513;PMS5003;66331;46.796;9.824;2023-01-26T10:28:17;10;6;
36513;PMS5003;66331;46.796;9.824;2023-01-26T10:30:48;10;9;
36513;PMS5003;66331;46.796;9.824;2023-01-26T10:33:17;6;5;
36513;PMS5003;66331;46.796;9.824;2023-01-26T10:35:49;8;8;
36513;PMS5003;66331;46.796;9.824;2023-01-26T10:38:49;12;10;
36513;PMS5003;66331;46.796;9.824;2023-01-26T10:41:25;11;9;
36513;PMS5003;66331;46.796;9.824;2023-01-26T10:43:55;10;8;
36513;PMS5003;66331;46.796;9.824;2023-01-26T10:46:26;15;13;
36513;PMS5003;66331;46.796;9.824;2023-01-26T10:48:57;17;14;
36513;PMS5003;66331;46.796;9.824;2023-01-26T10:51:26;19;15;
36513;PMS5003;66331;46.796;9.824;2023-01-26T10:54:12;13;13;
36513;PMS5003;66331;46.796;9.824;2023-01-26T10:56:44;7;7;
36513;PMS5003;66331;46.796;9.824;2023-01-26T10:59:21;10;9;
36513;PMS5003;66331;46.796;9.824;2023-01-26T11:01:54;6;5;
36513;PMS5003;66331;46.796;9.824;2023-01-26T11:04:23;3;3;
36513;PMS5003;66331;46.796;9.824;2023-01-26T11:06:51;5;5;
36513;PMS5003;66331;46.796;9.824;2023-01-26T11:09:19;2;2;
36513;PMS5003;66331;46.796;9.824;2023-01-26T11:11:57;2;2;
36513;PMS5003;66331;46.796;9.824;2023-01-26T11:14:27;3;3;
36513;PMS5003;66331;46.796;9.824;2023-01-26T11:16:58;3;2;
36513;PMS5003;66331;46.796;9.824;2023-01-26T11:19:35;2;2;
36513;PMS5003;66331;46.796;9.824;2023-01-26T11:22:14;3;2;
36513;PMS5003;66331;46.796;9.824;2023-01-26T11:24:45;2;2;
36513;PMS5003;66331;46.796;9.824;2023-01-26T11:27:21;2;2;
36513;PMS5003;66331;46.796;9.824;2023-01-26T11:30:04;1;1;
36513;PMS5003;66331;46.796;9.824;2023-01-26T11:32:49;1;1;
36513;PMS5003;66331;46.796;9.824;2023-01-26T11:35:27;1;1;
36513;PMS5003;66331;46.796;9.824;2023-01-26T11:37:59;2;0;
36513;PMS5003;66331;46.796;9.824;2023-01-26T11:40:43;0;0;
36513;PMS5003;66331;46.796;9.824;2023-01-26T11:43:21;1;1;
36513;PMS5003;66331;46.796;9.824;2023-01-26T11:46:16;1;1;
36513;PMS5003;66331;46.796;9.824;2023-01-26T11:48:58;1;1;
36513;PMS5003;66331;46.796;9.824;2023-01-26T11:51:37;0;0;
36513;PMS5003;66331;46.796;9.824;2023-01-26T11:54:20;1;1;
36513;PMS5003;66331;46.796;9.824;2023-01-26T11:56:58;0;0;
36513;PMS5003;66331;46.796;9.824;2023-01-26T11:59:33;0;0;
36513;PMS5003;66331;46.796;9.824;2023-01-26T12:02:05;0;0;
36513;PMS5003;66331;46.796;9.824;2023-01-26T12:04:54;0;0;
36513;PMS5003;66331;46.796;9.824;2023-01-26T12:07:23;0;0;
36513;PMS5003;66331;46.796;9.824;2023-01-26T12:09:55;0;0;
36513;PMS5003;66331;46.796;9.824;2023-01-26T12:12:29;1;0;
36513;PMS5003;66331;46.796;9.824;2023-01-26T12:15:01;1;0;
36513;PMS5003;66331;46.796;9.824;2023-01-26T12:17:38;0;0;
36513;PMS5003;66331;46.796;9.824;2023-01-26T12:20:18;0;0;
36513;PMS5003;66331;46.796;9.824;2023-01-26T12:22:54;0;0;
36513;PMS5003;66331;46.796;9.824;2023-01-26T12:25:31;1;0;
36513;PMS5003;66331;46.796;9.824;2023-01-26T12:28:03;0;0;
36513;PMS5003;66331;46.796;9.824;2023-01-26T12:30:40;0;0;
36513;PMS5003;66331;46.796;9.824;2023-01-26T12:33:15;1;0;
36513;PMS5003;66331;46.796;9.824;2023-01-26T12:35:47;0;0;
36513;PMS5003;66331;46.796;9.824;2023-01-26T12:38:30;0;0;
36513;PMS5003;66331;46.796;9.824;2023-01-26T12:41:10;1;0;
36513;PMS5003;66331;46.796;9.824;2023-01-26T12:43:48;0;0;
36513;PMS5003;66331;46.796;9.824;2023-01-26T12:46:26;0;0;
36513;PMS5003;66331;46.796;9.824;2023-01-26T12:48:57;0;0;
36513;PMS5003;66331;46.796;9.824;2023-01-26T12:51:32;0;0;
36513;PMS5003;66331;46.796;9.824;2023-01-26T12:54:03;1;1;
36513;PMS5003;66331;46.796;9.824;2023-01-26T12:56:38;0;0;
36513;PMS5003;66331;46.796;9.824;2023-01-26T12:59:11;0;0;
36513;PMS5003;66331;46.796;9.824;2023-01-26T13:01:43;0;0;
36513;PMS5003;66331;46.796;9.824;2023-01-26T13:04:11;1;1;
36513;PMS5003;66331;46.796;9.824;2023-01-26T13:06:40;2;2;
36513;PMS5003;66331;46.796;9.824;2023-01-26T13:09:23;1;1;
36513;PMS5003;66331;46.796;9.824;2023-01-26T13:11:52;1;1;
36513;PMS5003;66331;46.796;9.824;2023-01-26T13:14:24;2;1;
36513;PMS5003;66331;46.796;9.824;2023-01-26T13:16:55;3;2;
36513;PMS5003;66331;46.796;9.824;2023-01-26T13:19:49;3;2;
36513;PMS5003;66331;46.796;9.824;2023-01-26T13:22:51;6;3;
36513;PMS5003;66331;46.796;9.824;2023-01-26T13:25:24;7;5;
36513;PMS5003;66331;46.796;9.824;2023-01-26T13:27:56;6;5;
36513;PMS5003;66331;46.796;9.824;2023-01-26T13:30:32;5;5;
36513;PMS5003;66331;46.796;9.824;2023-01-26T13:33:10;6;6;
36513;PMS5003;66331;46.796;9.824;2023-01-26T13:35:41;8;4;
36513;PMS5003;66331;46.796;9.824;2023-01-26T13:38:12;2;2;
36513;PMS5003;66331;46.796;9.824;2023-01-26T13:40:45;4;2;
36513;PMS5003;66331;46.796;9.824;2023-01-26T13:43:15;2;2;
36513;PMS5003;66331;46.796;9.824;2023-01-26T13:45:53;4;4;
36513;PMS5003;66331;46.796;9.824;2023-01-26T13:48:31;3;2;
36513;PMS5003;66331;46.796;9.824;2023-01-26T13:51:07;6;4;
36513;PMS5003;66331;46.796;9.824;2023-01-26T13:53:38;4;4;
36513;PMS5003;66331;46.796;9.824;2023-01-26T13:56:18;7;4;
36513;PMS5003;66331;46.796;9.824;2023-01-26T13:58:49;3;3;
36513;PMS5003;66331;46.796;9.824;2023-01-26T14:01:16;7;4;
36513;PMS5003;66331;46.796;9.824;2023-01-26T14:03:45;4;4;
36513;PMS5003;66331;46.796;9.824;2023-01-26T14:06:12;8;6;
36513;PMS5003;66331;46.796;9.824;2023-01-26T14:08:42;7;7;
36513;PMS5003;66331;46.796;9.824;2023-01-26T14:11:17;6;5;
36513;PMS5003;66331;46.796;9.824;2023-01-26T14:13:46;7;6;
36513;PMS5003;66331;46.796;9.824;2023-01-26T14:16:19;10;8;
36513;PMS5003;66331;46.796;9.824;2023-01-26T14:18:48;10;8;
36513;PMS5003;66331;46.796;9.824;2023-01-26T14:21:17;10;10;
36513;PMS5003;66331;46.796;9.824;2023-01-26T14:23:52;10;10;
36513;PMS5003;66331;46.796;9.824;2023-01-26T14:26:24;10;8;
36513;PMS5003;66331;46.796;9.824;2023-01-26T14:28:56;9;9;
36513;PMS5003;66331;46.796;9.824;2023-01-26T14:31:25;9;9;
36513;PMS5003;66331;46.796;9.824;2023-01-26T14:33:54;10;10;
36513;PMS5003;66331;46.796;9.824;2023-01-26T14:36:23;13;10;
36513;PMS5003;66331;46.796;9.824;2023-01-26T14:38:52;11;7;
36513;PMS5003;66331;46.796;9.824;2023-01-26T14:41:21;10;7;
36513;PMS5003;66331;46.796;9.824;2023-01-26T14:43:50;14;10;
36513;PMS5003;66331;46.796;9.824;2023-01-26T14:46:21;13;13;
36513;PMS5003;66331;46.796;9.824;2023-01-26T14:48:54;14;13;
36513;PMS5003;66331;46.796;9.824;2023-01-26T14:51:26;14;9;
36513;PMS5003;66331;46.796;9.824;2023-01-26T14:53:57;13;10;
36513;PMS5003;66331;46.796;9.824;2023-01-26T14:56:41;9;9;
36513;PMS5003;66331;46.796;9.824;2023-01-26T14:59:14;17;10;
36513;PMS5003;66331;46.796;9.824;2023-01-26T15:01:46;17;13;
36513;PMS5003;66331;46.796;9.824;2023-01-26T15:04:16;13;11;
36513;PMS5003;66331;46.796;9.824;2023-01-26T15:06:49;14;13;
36513;PMS5003;66331;46.796;9.824;2023-01-26T15:09:19;21;17;
36513;PMS5003;66331;46.796;9.824;2023-01-26T15:12:16;21;13;
36513;PMS5003;66331;46.796;9.824;2023-01-26T15:14:46;20;17;
36513;PMS5003;66331;46.796;9.824;2023-01-26T15:17:35;21;16;
36513;PMS5003;66331;46.796;9.824;2023-01-26T15:20:10;17;17;
36513;PMS5003;66331;46.796;9.824;2023-01-26T15:23:03;14;13;
36513;PMS5003;66331;46.796;9.824;2023-01-26T15:25:47;17;16;
36513;PMS5003;66331;46.796;9.824;2023-01-26T15:28:16;18;16;
36513;PMS5003;66331;46.796;9.824;2023-01-26T15:30:45;18;16;
36513;PMS5003;66331;46.796;9.824;2023-01-26T15:33:49;16;14;
36513;PMS5003;66331;46.796;9.824;2023-01-26T15:36:20;21;17;
36513;PMS5003;66331;46.796;9.824;2023-01-26T15:38:50;22;22;
36513;PMS5003;66331;46.796;9.824;2023-01-26T15:41:22;20;17;
36513;PMS5003;66331;46.796;9.824;2023-01-26T15:43:50;21;16;
36513;PMS5003;66331;46.796;9.824;2023-01-26T15:46:17;15;14;
36513;PMS5003;66331;46.796;9.824;2023-01-26T15:48:44;33;26;
36513;PMS5003;66331;46.796;9.824;2023-01-26T15:51:11;24;20;
36513;PMS5003;66331;46.796;9.824;2023-01-26T15:53:39;24;20;
36513;PMS5003;66331;46.796;9.824;2023-01-26T15:56:09;21;19;
36513;PMS5003;66331;46.796;9.824;2023-01-26T15:58:37;29;24;
36513;PMS5003;66331;46.796;9.824;2023-01-26T16:01:05;27;21;
36513;PMS5003;66331;46.796;9.824;2023-01-26T16:03:32;24;21;
36513;PMS5003;66331;46.796;9.824;2023-01-26T16:05:59;27;19;
36513;PMS5003;66331;46.796;9.824;2023-01-26T16:08:26;19;16;
36513;PMS5003;66331;46.796;9.824;2023-01-26T16:10:53;24;16;
36513;PMS5003;66331;46.796;9.824;2023-01-26T16:13:21;28;25;
36513;PMS5003;66331;46.796;9.824;2023-01-26T16:15:48;20;20;
36513;PMS5003;66331;46.796;9.824;2023-01-26T16:18:23;23;16;
36513;PMS5003;66331;46.796;9.824;2023-01-26T16:20:49;32;24;
36513;PMS5003;66331;46.796;9.824;2023-01-26T16:23:18;20;20;
36513;PMS5003;66331;46.796;9.824;2023-01-26T16:25:46;20;19;
36513;PMS5003;66331;46.796;9.824;2023-01-26T16:28:14;26;23;
36513;PMS5003;66331;46.796;9.824;2023-01-26T16:30:41;24;21;
36513;PMS5003;66331;46.796;9.824;2023-01-26T16:33:10;21;20;
36513;PMS5003;66331;46.796;9.824;2023-01-26T16:35:38;27;23;
36513;PMS5003;66331;46.796;9.824;2023-01-26T16:38:05;23;17;
36513;PMS5003;66331;46.796;9.824;2023-01-26T16:40:32;26;23;
36513;PMS5003;66331;46.796;9.824;2023-01-26T16:43:00;31;27;
36513;PMS5003;66331;46.796;9.824;2023-01-26T16:45:27;33;26;
36513;PMS5003;66331;46.796;9.824;2023-01-26T16:47:55;27;24;
36513;PMS5003;66331;46.796;9.824;2023-01-26T16:50:23;23;20;
36513;PMS5003;66331;46.796;9.824;2023-01-26T16:52:50;29;23;
36513;PMS5003;66331;46.796;9.824;2023-01-26T16:55:18;26;22;
36513;PMS5003;66331;46.796;9.824;2023-01-26T16:57:45;27;22;
36513;PMS5003;66331;46.796;9.824;2023-01-26T17:00:14;30;24;
36513;PMS5003;66331;46.796;9.824;2023-01-26T17:02:43;27;22;